Time;durP1;ratioP1;P1;durP2;ratioP2;P2;SDS_P1;SDS_P2;PMS_P1;PMS_P2;Temp;Humidity;BMP_temperature;BMP_pressure;BME280_temperature;BME280_humidity;BME280_pressure;Samples;Min_cycle;Max_cycle;Signal;HPM_P1;HPM_P2
2022/02/25 00:01:55;;;;;;;;;;;19.10;99.90;;;;;;5027105;28;19925;-58
2022/02/25 00:04:23;;;;;;;;;;;19.10;99.90;;;;;;5001206;28;20017;-60
2022/02/25 00:06:50;;;;;;;;;;;19.10;99.90;;;;;;5022793;28;19940;-59
2022/02/25 00:09:17;;;;;;;;;;;19.10;99.90;;;;;;5020866;28;19926;-61
2022/02/25 00:11:44;;;;;;;;;;;19.10;99.90;;;;;;5019304;28;20259;-60
2022/02/25 00:14:12;;;;;;;;;;;19.00;99.90;;;;;;5023877;28;19926;-60
2022/02/25 00:16:39;;;;;;;;;;;19.00;99.90;;;;;;5021640;28;19926;-60
2022/02/25 00:19:06;;;;;;;;;;;19.00;99.90;;;;;;5012817;28;19925;-59
2022/02/25 00:21:34;;;;;;;;;;;19.00;99.90;;;;;;5020815;28;19932;-61
2022/02/25 00:24:01;;;;;;;;;;;19.00;99.90;;;;;;5016380;28;19925;-60
2022/02/25 00:26:28;;;;;;;;;;;19.00;99.90;;;;;;4999748;28;19922;-60
2022/02/25 00:28:55;;;;;;;;;;;18.90;99.90;;;;;;5014512;28;20000;-59
2022/02/25 00:31:23;;;;;;;;;;;19.00;99.90;;;;;;5017972;28;19921;-61
2022/02/25 00:33:50;;;;;;;;;;;19.00;99.90;;;;;;5010445;28;19952;-61
2022/02/25 00:36:18;;;;;;;;;;;18.90;99.90;;;;;;5020573;28;20027;-61
2022/02/25 00:38:45;;;;;;;;;;;18.90;99.90;;;;;;5017169;28;19932;-61
2022/02/25 00:41:12;;;;;;;;;;;18.90;99.90;;;;;;5016975;28;19925;-62
2022/02/25 00:43:39;;;;;;;;;;;18.90;99.90;;;;;;5024564;28;20332;-62
2022/02/25 00:46:06;;;;;;;;;;;18.90;99.90;;;;;;5019845;28;20025;-63
2022/02/25 00:48:34;;;;;;;;;;;18.90;99.90;;;;;;5021654;28;19936;-63
2022/02/25 00:51:01;;;;;;;;;;;18.90;99.90;;;;;;5014152;28;19936;-61
2022/02/25 00:53:28;;;;;;;;;;;18.90;99.90;;;;;;5020594;28;19929;-59
2022/02/25 00:55:55;;;;;;;;;;;18.90;99.90;;;;;;5026468;28;19925;-62
2022/02/25 00:58:22;;;;;;;;;;;18.90;99.90;;;;;;5027288;28;19925;-61
2022/02/25 01:00:49;;;;;;;;;;;18.90;99.90;;;;;;5005063;28;19921;-61
2022/02/25 01:03:16;;;;;;;;;;;18.90;99.90;;;;;;5014443;28;19922;-60
2022/02/25 01:05:44;;;;;;;;;;;18.80;99.90;;;;;;5020179;28;19925;-62
2022/02/25 01:08:11;;;;;;;;;;;18.80;99.90;;;;;;5010198;28;19929;-61
2022/02/25 01:10:38;;;;;;;;;;;18.80;99.90;;;;;;5008542;28;19929;-61
2022/02/25 01:13:05;;;;;;;;;;;18.70;99.90;;;;;;5022656;28;19932;-61
2022/02/25 01:15:33;;;;;;;;;;;18.70;99.90;;;;;;5030948;28;19929;-61
2022/02/25 01:18:00;;;;;;;;;;;18.70;99.90;;;;;;5042004;28;19909;-62
2022/02/25 01:20:27;;;;;;;;;;;18.70;99.90;;;;;;5025614;28;19925;-62
2022/02/25 01:22:54;;;;;;;;;;;18.70;99.90;;;;;;5014239;28;19925;-61
2022/02/25 01:25:22;;;;;;;;;;;18.70;99.90;;;;;;5017881;28;19936;-61
2022/02/25 01:27:49;;;;;;;;;;;18.70;99.90;;;;;;5020891;28;19921;-58
2022/02/25 01:30:16;;;;;;;;;;;18.80;99.90;;;;;;5019788;28;19925;-60
2022/02/25 01:32:43;;;;;;;;;;;18.80;99.90;;;;;;5022489;28;19928;-58
2022/02/25 01:35:10;;;;;;;;;;;18.80;99.90;;;;;;5029806;28;19938;-61
2022/02/25 01:37:38;;;;;;;;;;;18.80;99.90;;;;;;5027723;28;19921;-61
2022/02/25 01:40:05;;;;;;;;;;;18.80;99.90;;;;;;5010227;28;19932;-61
2022/02/25 01:42:42;;;;;;;;;;;18.80;99.90;;;;;;5025896;28;19926;-61
2022/02/25 01:45:09;;;;;;;;;;;18.80;99.90;;;;;;5016298;28;19936;-60
2022/02/25 01:47:36;;;;;;;;;;;18.80;99.90;;;;;;5015310;28;19932;-58
2022/02/25 01:50:04;;;;;;;;;;;18.70;99.90;;;;;;5009927;28;20341;-61
2022/02/25 01:52:31;;;;;;;;;;;18.80;99.90;;;;;;5014337;28;19926;-63
2022/02/25 01:54:59;;;;;;;;;;;18.70;99.90;;;;;;5030515;28;19921;-61
2022/02/25 01:57:26;;;;;;;;;;;18.70;99.90;;;;;;5025661;28;19931;-60
2022/02/25 01:59:54;;;;;;;;;;;18.70;99.90;;;;;;5018745;28;19944;-58
2022/02/25 02:02:23;;;;;;;;;;;18.70;99.90;;;;;;5029197;28;20498;-60
2022/02/25 02:04:50;;;;;;;;;;;18.70;99.90;;;;;;5015744;28;19921;-60
2022/02/25 02:07:17;;;;;;;;;;;18.60;99.90;;;;;;5024365;28;19962;-61
2022/02/25 02:09:45;;;;;;;;;;;18.60;99.90;;;;;;5014702;28;20398;-61
2022/02/25 02:12:12;;;;;;;;;;;18.60;99.90;;;;;;5012116;28;19925;-61
2022/02/25 02:14:40;;;;;;;;;;;18.60;99.90;;;;;;5013080;28;19925;-60
2022/02/25 02:17:08;;;;;;;;;;;18.60;99.90;;;;;;5005133;28;19925;-61
2022/02/25 02:19:35;;;;;;;;;;;18.60;99.90;;;;;;5005304;28;19929;-61
2022/02/25 02:22:02;;;;;;;;;;;18.60;99.90;;;;;;5011072;28;20420;-60
2022/02/25 02:24:29;;;;;;;;;;;18.60;99.90;;;;;;5009789;28;19932;-61
2022/02/25 02:26:57;;;;;;;;;;;18.60;99.90;;;;;;5018849;28;19926;-62
2022/02/25 02:29:24;;;;;;;;;;;18.60;99.90;;;;;;5008195;28;20298;-60
2022/02/25 02:31:52;;;;;;;;;;;18.50;99.90;;;;;;5014041;28;20194;-63
2022/02/25 02:34:20;;;;;;;;;;;18.60;99.90;;;;;;5007646;28;19921;-62
2022/02/25 02:36:47;;;;;;;;;;;18.60;99.90;;;;;;5020168;28;20133;-60
2022/02/25 02:39:15;;;;;;;;;;;18.60;99.90;;;;;;5019113;28;19929;-58
2022/02/25 02:41:42;;;;;;;;;;;18.60;99.90;;;;;;5023523;28;19929;-60
2022/02/25 02:44:09;;;;;;;;;;;18.60;99.90;;;;;;5024677;28;19925;-60
2022/02/25 02:46:37;;;;;;;;;;;18.60;99.90;;;;;;5019941;28;19932;-61
2022/02/25 02:49:04;;;;;;;;;;;18.60;99.90;;;;;;5017760;28;19932;-60
2022/02/25 02:51:32;;;;;;;;;;;18.50;99.90;;;;;;5015956;28;19928;-59
2022/02/25 02:53:59;;;;;;;;;;;18.50;99.90;;;;;;5020011;28;20344;-60
2022/02/25 02:56:26;;;;;;;;;;;18.60;99.90;;;;;;5012959;28;19936;-63
2022/02/25 02:58:57;;;;;;;;;;;18.50;99.90;;;;;;5027234;28;19932;-60
2022/02/25 03:01:31;;;;;;;;;;;18.50;99.90;;;;;;5001493;28;19975;-59
2022/02/25 03:03:58;;;;;;;;;;;18.50;99.90;;;;;;5018346;28;19921;-60
2022/02/25 03:06:26;;;;;;;;;;;18.50;99.90;;;;;;5025980;28;20407;-62
2022/02/25 03:08:53;;;;;;;;;;;18.50;99.90;;;;;;5021285;28;19932;-61
2022/02/25 03:11:21;;;;;;;;;;;18.50;99.90;;;;;;5015536;28;19937;-60
2022/02/25 03:13:49;;;;;;;;;;;18.50;99.90;;;;;;5016247;28;20389;-58
2022/02/25 03:16:16;;;;;;;;;;;18.50;99.90;;;;;;5017877;28;19945;-59
2022/02/25 03:18:43;;;;;;;;;;;18.40;99.90;;;;;;5025552;28;19936;-61
2022/02/25 03:21:12;;;;;;;;;;;18.40;99.90;;;;;;5027651;28;20210;-60
2022/02/25 03:23:39;;;;;;;;;;;18.40;99.90;;;;;;5018270;28;19925;-63
2022/02/25 03:26:07;;;;;;;;;;;18.40;99.90;;;;;;5022820;28;19932;-62
2022/02/25 03:28:34;;;;;;;;;;;18.40;99.90;;;;;;5009391;28;20403;-61
2022/02/25 03:31:01;;;;;;;;;;;18.40;99.90;;;;;;5023718;28;19921;-60
2022/02/25 03:33:29;;;;;;;;;;;18.40;99.90;;;;;;5005742;28;20411;-59
2022/02/25 03:35:56;;;;;;;;;;;18.40;99.90;;;;;;5029818;28;19929;-60
2022/02/25 03:38:23;;;;;;;;;;;18.40;99.90;;;;;;5014477;28;20297;-61
2022/02/25 03:40:51;;;;;;;;;;;18.40;99.90;;;;;;5020685;28;19925;-61
2022/02/25 03:43:18;;;;;;;;;;;18.30;99.90;;;;;;5019484;28;19933;-60
2022/02/25 03:45:45;;;;;;;;;;;18.30;99.90;;;;;;5022048;28;19929;-60
2022/02/25 03:48:12;;;;;;;;;;;18.40;99.90;;;;;;5022678;28;19925;-63
2022/02/25 03:50:40;;;;;;;;;;;18.30;99.90;;;;;;5013129;28;20385;-60
2022/02/25 03:53:07;;;;;;;;;;;18.30;99.90;;;;;;5025796;28;19940;-60
2022/02/25 03:55:34;;;;;;;;;;;18.30;99.90;;;;;;5018238;28;19936;-62
2022/02/25 03:58:01;;;;;;;;;;;18.30;99.90;;;;;;5012089;28;19921;-61
2022/02/25 04:00:29;;;;;;;;;;;18.30;99.90;;;;;;5015777;28;19928;-60
2022/02/25 04:02:57;;;;;;;;;;;18.20;99.90;;;;;;5026414;28;19939;-62
2022/02/25 04:05:25;;;;;;;;;;;18.30;99.90;;;;;;5029831;28;19925;-61
2022/02/25 04:07:53;;;;;;;;;;;18.30;99.90;;;;;;5033249;28;19925;-60
2022/02/25 04:10:21;;;;;;;;;;;18.30;99.90;;;;;;5021642;28;19936;-62
2022/02/25 04:12:48;;;;;;;;;;;18.30;99.90;;;;;;5032653;28;20293;-62
2022/02/25 04:15:19;;;;;;;;;;;18.30;99.90;;;;;;5032227;28;20077;-62
2022/02/25 04:17:47;;;;;;;;;;;18.30;99.90;;;;;;5029654;28;19921;-63
2022/02/25 04:20:14;;;;;;;;;;;18.30;99.90;;;;;;5029410;28;19925;-61
2022/02/25 04:22:41;;;;;;;;;;;18.30;99.90;;;;;;5036325;28;19928;-59
2022/02/25 04:25:09;;;;;;;;;;;18.30;99.90;;;;;;5015210;28;20133;-59
2022/02/25 04:27:37;;;;;;;;;;;18.30;99.90;;;;;;5031858;28;19932;-60
2022/02/25 04:30:05;;;;;;;;;;;18.30;99.90;;;;;;4996700;28;19937;-61
2022/02/25 04:32:33;;;;;;;;;;;18.30;99.90;;;;;;4998476;28;19932;-60
2022/02/25 04:35:00;;;;;;;;;;;18.30;99.90;;;;;;5000849;28;19926;-60
2022/02/25 04:37:28;;;;;;;;;;;18.20;99.90;;;;;;5028108;28;19935;-61
2022/02/25 04:39:55;;;;;;;;;;;18.20;99.90;;;;;;5017377;28;20308;-61
2022/02/25 04:42:24;;;;;;;;;;;18.20;99.90;;;;;;5024714;28;20124;-60
2022/02/25 04:44:51;;;;;;;;;;;18.20;99.90;;;;;;5024887;28;19932;-59
2022/02/25 04:47:18;;;;;;;;;;;18.10;99.90;;;;;;5020423;28;19997;-59
2022/02/25 04:49:45;;;;;;;;;;;18.10;99.90;;;;;;5016383;28;19951;-64
2022/02/25 04:52:13;;;;;;;;;;;18.10;99.90;;;;;;5016474;28;19926;-59
2022/02/25 04:54:40;;;;;;;;;;;18.20;99.90;;;;;;5023020;28;19956;-60
2022/02/25 04:57:07;;;;;;;;;;;18.20;99.90;;;;;;5033858;28;19925;-60
2022/02/25 04:59:35;;;;;;;;;;;18.40;99.90;;;;;;5015010;28;20502;-60
2022/02/25 05:02:02;;;;;;;;;;;18.50;99.90;;;;;;4999539;28;20687;-63
2022/02/25 05:04:30;;;;;;;;;;;18.70;99.90;;;;;;5006022;28;20327;-62
2022/02/25 05:06:57;;;;;;;;;;;18.80;99.90;;;;;;5022544;28;20308;-59
2022/02/25 05:09:24;;;;;;;;;;;18.90;99.90;;;;;;5023945;28;19937;-60
2022/02/25 05:11:51;;;;;;;;;;;19.00;99.90;;;;;;5021117;28;19936;-61
2022/02/25 05:22:36;;;;;;;;;;;19.60;99.90;;;;;;5019103;28;19931;-61
2022/02/25 05:25:04;;;;;;;;;;;19.70;99.90;;;;;;5026827;28;19936;-62
2022/02/25 05:27:31;;;;;;;;;;;19.80;99.90;;;;;;5021852;28;21745;-62
2022/02/25 05:30:00;;;;;;;;;;;20.00;99.90;;;;;;5017550;28;19929;-61
2022/02/25 05:32:27;;;;;;;;;;;20.10;99.90;;;;;;5016235;28;19924;-62
2022/02/25 05:34:54;;;;;;;;;;;20.20;99.90;;;;;;5021994;28;19924;-61
2022/02/25 05:37:21;;;;;;;;;;;20.30;99.90;;;;;;5014713;28;19925;-63
2022/02/25 05:39:49;;;;;;;;;;;20.50;99.90;;;;;;5015798;28;19925;-62
2022/02/25 05:42:17;;;;;;;;;;;20.60;99.90;;;;;;5026069;28;19928;-62
2022/02/25 05:44:44;;;;;;;;;;;20.80;99.90;;;;;;5010178;28;19928;-62
2022/02/25 05:47:12;;;;;;;;;;;20.90;99.90;;;;;;5024190;28;19947;-62
2022/02/25 05:49:39;;;;;;;;;;;21.10;99.90;;;;;;5008661;28;19936;-61
2022/02/25 05:52:06;;;;;;;;;;;21.30;99.90;;;;;;5032363;28;19925;-61
2022/02/25 05:54:33;;;;;;;;;;;21.30;99.90;;;;;;4991258;28;20557;-60
2022/02/25 05:57:00;;;;;;;;;;;21.30;99.90;;;;;;5006351;28;19932;-62
2022/02/25 05:59:28;;;;;;;;;;;21.40;99.90;;;;;;5006238;28;19940;-61
2022/02/25 06:01:56;;;;;;;;;;;21.40;99.90;;;;;;5004950;28;19929;-61
2022/02/25 06:04:23;;;;;;;;;;;21.40;99.90;;;;;;4999539;28;19921;-58
2022/02/25 06:06:50;;;;;;;;;;;21.30;99.90;;;;;;5003041;28;19925;-61
2022/02/25 06:09:17;;;;;;;;;;;20.20;94.50;;;;;;5017571;28;19925;-59
2022/02/25 06:11:44;;;;;;;;;;;18.90;93.70;;;;;;4999158;28;19971;-62
2022/02/25 06:14:11;;;;;;;;;;;18.10;92.60;;;;;;5005418;28;19925;-61
2022/02/25 06:16:39;;;;;;;;;;;17.30;92.90;;;;;;4994999;28;20290;-61
2022/02/25 06:19:06;;;;;;;;;;;17.20;94.60;;;;;;5002969;28;19936;-62
2022/02/25 06:21:33;;;;;;;;;;;17.90;94.20;;;;;;5004132;28;20408;-61
2022/02/25 06:24:01;;;;;;;;;;;18.70;94.10;;;;;;4995971;28;20405;-62
2022/02/25 06:26:29;;;;;;;;;;;19.30;94.10;;;;;;5026628;28;19921;-61
2022/02/25 06:28:57;;;;;;;;;;;19.60;94.60;;;;;;5003774;28;19929;-59
2022/02/25 06:31:24;;;;;;;;;;;19.80;95.30;;;;;;4999885;28;20562;-61
2022/02/25 06:33:51;;;;;;;;;;;20.00;95.90;;;;;;4995628;28;20017;-63
2022/02/25 06:36:18;;;;;;;;;;;20.00;96.40;;;;;;4999967;28;19955;-59
2022/02/25 06:38:48;;;;;;;;;;;20.00;97.10;;;;;;4999954;28;19925;-61
2022/02/25 06:41:16;;;;;;;;;;;19.90;96.70;;;;;;5003930;28;19997;-62
2022/02/25 06:43:43;;;;;;;;;;;20.10;96.90;;;;;;4996924;28;20009;-61
2022/02/25 06:46:11;;;;;;;;;;;20.20;97.50;;;;;;4996040;28;20638;-69
2022/02/25 06:48:38;;;;;;;;;;;20.30;98.00;;;;;;4991876;28;20281;-69
2022/02/25 06:51:08;;;;;;;;;;;20.40;98.60;;;;;;5004353;28;19925;-67
2022/02/25 06:53:36;;;;;;;;;;;20.60;98.60;;;;;;4996634;28;19940;-65
2022/02/25 06:56:03;;;;;;;;;;;20.60;98.90;;;;;;4996234;28;19932;-62
2022/02/25 06:58:31;;;;;;;;;;;20.50;99.20;;;;;;5006555;28;19928;-65
2022/02/25 07:00:58;;;;;;;;;;;20.60;99.40;;;;;;5002147;28;19929;-65
2022/02/25 07:03:29;;;;;;;;;;;20.80;99.30;;;;;;5019097;28;19928;-65
2022/02/25 07:05:57;;;;;;;;;;;20.80;99.30;;;;;;4997802;28;19932;-67
2022/02/25 07:08:24;;;;;;;;;;;20.90;99.30;;;;;;5017356;28;20391;-61
2022/02/25 07:10:51;;;;;;;;;;;20.90;99.40;;;;;;5019850;28;19929;-61
2022/02/25 07:13:19;;;;;;;;;;;21.00;99.40;;;;;;5018138;28;19929;-60
2022/02/25 07:15:47;;;;;;;;;;;21.00;99.50;;;;;;5002412;28;19932;-66
2022/02/25 07:18:16;;;;;;;;;;;21.00;99.70;;;;;;5017516;28;19935;-66
2022/02/25 07:20:44;;;;;;;;;;;21.00;99.90;;;;;;5018563;28;19936;-65
2022/02/25 07:23:12;;;;;;;;;;;21.00;99.90;;;;;;5019194;28;19944;-64
2022/02/25 07:25:40;;;;;;;;;;;21.00;99.90;;;;;;5007332;28;19940;-65
2022/02/25 07:28:07;;;;;;;;;;;21.00;99.90;;;;;;5021775;28;19920;-65
2022/02/25 07:30:35;;;;;;;;;;;20.90;99.90;;;;;;5020437;28;20673;-64
2022/02/25 07:33:02;;;;;;;;;;;20.90;99.90;;;;;;5021215;28;19925;-66
2022/02/25 07:35:30;;;;;;;;;;;20.80;99.90;;;;;;5023387;28;20825;-65
2022/02/25 07:37:57;;;;;;;;;;;20.80;99.90;;;;;;5022048;28;20644;-65
2022/02/25 07:40:25;;;;;;;;;;;20.80;99.90;;;;;;5017873;28;19929;-64
2022/02/25 07:42:52;;;;;;;;;;;20.70;99.90;;;;;;5021287;28;19936;-65
2022/02/25 07:45:24;;;;;;;;;;;20.70;99.90;;;;;;5024006;28;20419;-63
2022/02/25 07:47:51;;;;;;;;;;;20.60;99.90;;;;;;5020799;28;20408;-64
2022/02/25 07:50:19;;;;;;;;;;;20.60;99.90;;;;;;5021410;28;19932;-65
2022/02/25 07:52:47;;;;;;;;;;;20.60;99.90;;;;;;5038128;28;19931;-58
2022/02/25 07:55:14;;;;;;;;;;;20.60;99.90;;;;;;5022140;28;19944;-61
2022/02/25 07:57:42;;;;;;;;;;;20.60;99.90;;;;;;5022921;28;19936;-61
2022/02/25 08:00:24;;;;;;;;;;;20.60;99.90;;;;;;5022164;28;19949;-61
2022/02/25 08:02:52;;;;;;;;;;;20.50;99.90;;;;;;5028185;28;20011;-62
2022/02/25 08:05:19;;;;;;;;;;;20.50;99.90;;;;;;5035946;28;19921;-62
2022/02/25 08:07:47;;;;;;;;;;;20.50;99.90;;;;;;5036520;28;19936;-62
2022/02/25 08:10:14;;;;;;;;;;;20.50;99.90;;;;;;5033413;28;19936;-61
2022/02/25 08:12:42;;;;;;;;;;;20.40;99.90;;;;;;5033100;28;19925;-60
2022/02/25 08:15:10;;;;;;;;;;;20.40;99.90;;;;;;5034839;28;19928;-62
2022/02/25 08:17:37;;;;;;;;;;;20.20;97.50;;;;;;5033395;28;21066;-62
2022/02/25 08:20:05;;;;;;;;;;;20.10;95.40;;;;;;5027676;28;19929;-62
2022/02/25 08:22:33;;;;;;;;;;;20.10;96.30;;;;;;5024614;28;19925;-65
2022/02/25 08:25:00;;;;;;;;;;;20.00;96.70;;;;;;5027245;28;19925;-60
2022/02/25 08:27:28;;;;;;;;;;;20.00;97.20;;;;;;5026548;28;19929;-61
2022/02/25 08:29:55;;;;;;;;;;;20.00;97.90;;;;;;5020057;28;19928;-60
2022/02/25 08:32:23;;;;;;;;;;;20.10;98.50;;;;;;5020087;28;19953;-64
2022/02/25 08:34:51;;;;;;;;;;;20.10;99.00;;;;;;5019282;28;19925;-61
2022/02/25 08:37:19;;;;;;;;;;;20.10;99.20;;;;;;5017245;28;19925;-64
2022/02/25 08:39:47;;;;;;;;;;;20.10;99.50;;;;;;5017656;28;20409;-63
2022/02/25 08:42:14;;;;;;;;;;;20.10;99.60;;;;;;5020364;28;19944;-64
2022/02/25 08:44:42;;;;;;;;;;;20.20;99.70;;;;;;5003592;28;19952;-60
2022/02/25 08:47:10;;;;;;;;;;;20.10;99.90;;;;;;5021527;28;19940;-60
2022/02/25 08:49:39;;;;;;;;;;;20.10;99.90;;;;;;5019921;28;19925;-58
2022/02/25 08:52:09;;;;;;;;;;;20.10;99.90;;;;;;5016460;28;19929;-60
2022/02/25 08:54:37;;;;;;;;;;;20.10;99.90;;;;;;5021021;28;19952;-61
2022/02/25 08:57:05;;;;;;;;;;;20.10;99.90;;;;;;5037938;28;19928;-60
2022/02/25 08:59:33;;;;;;;;;;;20.10;99.90;;;;;;5030173;28;19925;-61
2022/02/25 09:02:00;;;;;;;;;;;20.10;99.90;;;;;;5033951;28;19936;-59
2022/02/25 09:04:27;;;;;;;;;;;20.10;99.90;;;;;;5023022;28;19936;-60
2022/02/25 09:06:55;;;;;;;;;;;20.10;99.90;;;;;;5018720;28;19928;-66
2022/02/25 09:09:22;;;;;;;;;;;20.10;99.90;;;;;;5035337;28;19947;-66
2022/02/25 09:11:49;;;;;;;;;;;20.10;99.90;;;;;;5020084;28;19936;-64
2022/02/25 09:14:17;;;;;;;;;;;20.00;99.90;;;;;;5020062;28;20024;-62
2022/02/25 09:16:45;;;;;;;;;;;20.00;99.90;;;;;;5032524;28;19929;-70
2022/02/25 09:19:12;;;;;;;;;;;20.00;99.90;;;;;;5021519;28;19925;-57
2022/02/25 09:21:40;;;;;;;;;;;20.00;99.90;;;;;;5020384;28;20407;-59
2022/02/25 09:24:07;;;;;;;;;;;20.00;99.90;;;;;;5021651;28;19936;-61
2022/02/25 09:26:34;;;;;;;;;;;19.90;99.90;;;;;;5021304;28;19921;-60
2022/02/25 09:29:02;;;;;;;;;;;19.90;99.90;;;;;;5029402;28;19928;-59
2022/02/25 09:31:29;;;;;;;;;;;19.80;99.90;;;;;;5021539;28;19936;-64
2022/02/25 09:33:57;;;;;;;;;;;19.80;99.90;;;;;;5019624;28;19925;-61
2022/02/25 09:36:24;;;;;;;;;;;19.80;99.90;;;;;;5020165;28;20404;-64
2022/02/25 09:38:51;;;;;;;;;;;19.80;99.90;;;;;;5017930;28;19932;-62
2022/02/25 09:41:18;;;;;;;;;;;19.80;99.90;;;;;;5020575;28;19929;-60
2022/02/25 09:43:45;;;;;;;;;;;19.70;99.90;;;;;;5019750;28;20289;-56
2022/02/25 09:46:19;;;;;;;;;;;19.70;99.90;;;;;;5020570;28;19925;-66
2022/02/25 09:48:46;;;;;;;;;;;19.70;99.90;;;;;;5022237;28;19959;-62
2022/02/25 09:51:14;;;;;;;;;;;19.70;99.90;;;;;;5021413;28;19929;-62
2022/02/25 09:53:41;;;;;;;;;;;19.70;99.90;;;;;;5020496;28;20336;-59
2022/02/25 09:56:08;;;;;;;;;;;19.70;99.90;;;;;;5006079;28;19920;-57
2022/02/25 09:58:37;;;;;;;;;;;19.70;99.90;;;;;;5001155;28;19929;-62
2022/02/25 10:01:05;;;;;;;;;;;19.60;99.90;;;;;;5030509;28;19921;-59
2022/02/25 10:03:36;;;;;;;;;;;19.60;99.90;;;;;;4999498;28;20544;-58
2022/02/25 10:06:10;;;;;;;;;;;19.50;99.90;;;;;;5001535;28;20460;-64
2022/02/25 10:08:38;;;;;;;;;;;19.50;99.90;;;;;;5000716;28;19932;-59
2022/02/25 10:11:05;;;;;;;;;;;19.50;99.90;;;;;;5000475;28;19921;-62
2022/02/25 10:13:33;;;;;;;;;;;19.50;99.90;;;;;;4999059;28;19936;-61
2022/02/25 10:16:24;;;;;;;;;;;19.50;99.90;;;;;;5000305;28;20427;-60
2022/02/25 10:18:59;;;;;;;;;;;19.50;99.90;;;;;;4999687;28;19932;-63
2022/02/25 10:21:26;;;;;;;;;;;19.50;99.90;;;;;;5011081;28;19940;-60
2022/02/25 10:23:53;;;;;;;;;;;19.50;99.90;;;;;;5001602;28;19935;-65
2022/02/25 10:26:21;;;;;;;;;;;19.50;99.90;;;;;;4999929;28;19938;-58
2022/02/25 10:28:52;;;;;;;;;;;19.40;99.90;;;;;;4997018;28;19940;-61
2022/02/25 10:31:20;;;;;;;;;;;19.50;99.90;;;;;;5029272;28;20420;-60
2022/02/25 10:34:08;;;;;;;;;;;19.50;99.90;;;;;;4996936;28;19936;-58
2022/02/25 10:36:44;;;;;;;;;;;19.50;99.90;;;;;;4982671;28;20270;-59
2022/02/25 10:39:22;;;;;;;;;;;19.50;99.90;;;;;;4994940;28;19925;-61
2022/02/25 10:42:15;;;;;;;;;;;19.50;99.90;;;;;;4997447;28;19929;-67
2022/02/25 10:45:02;;;;;;;;;;;19.50;99.90;;;;;;5029704;28;20315;-69
2022/02/25 10:47:34;;;;;;;;;;;19.50;99.90;;;;;;4998341;28;20384;-65
2022/02/25 10:50:08;;;;;;;;;;;19.50;99.90;;;;;;4998594;28;19930;-61
2022/02/25 10:52:39;;;;;;;;;;;19.50;99.90;;;;;;4997888;28;19926;-63
2022/02/25 10:55:11;;;;;;;;;;;19.50;99.90;;;;;;4998591;28;20570;-62
2022/02/25 10:57:38;;;;;;;;;;;19.60;99.90;;;;;;5015884;28;19929;-62
2022/02/25 11:00:08;;;;;;;;;;;19.70;99.90;;;;;;4997164;28;19926;-65
2022/02/25 11:02:37;;;;;;;;;;;19.90;99.90;;;;;;4996990;28;19936;-66
2022/02/25 11:05:10;;;;;;;;;;;20.20;99.90;;;;;;5000887;28;19930;-62
2022/02/25 11:07:40;;;;;;;;;;;20.40;99.90;;;;;;5002409;28;19945;-60
2022/02/25 11:10:08;;;;;;;;;;;20.60;99.90;;;;;;4999576;28;20777;-63
2022/02/25 11:12:38;;;;;;;;;;;20.70;99.90;;;;;;4998939;28;19925;-65
2022/02/25 11:15:06;;;;;;;;;;;20.80;99.90;;;;;;5005800;28;19921;-61
2022/02/25 11:17:35;;;;;;;;;;;20.90;99.90;;;;;;5033511;28;19929;-60
2022/02/25 11:20:10;;;;;;;;;;;20.90;99.90;;;;;;5003230;28;19925;-65
2022/02/25 11:22:40;;;;;;;;;;;20.90;99.90;;;;;;5001399;28;19942;-58
2022/02/25 11:25:08;;;;;;;;;;;21.00;99.90;;;;;;5003943;28;19925;-63
2022/02/25 11:27:36;;;;;;;;;;;21.00;99.90;;;;;;5001875;28;19925;-67
2022/02/25 11:30:12;;;;;;;;;;;21.10;99.90;;;;;;5016795;28;19925;-63
2022/02/25 11:32:51;;;;;;;;;;;21.10;99.90;;;;;;5002150;28;19921;-66
2022/02/25 11:35:29;;;;;;;;;;;21.20;99.90;;;;;;5005414;28;19938;-64
2022/02/25 11:38:02;;;;;;;;;;;21.20;99.90;;;;;;5001818;28;19929;-63
2022/02/25 11:40:45;;;;;;;;;;;21.20;99.90;;;;;;5001929;28;19930;-61
2022/02/25 11:43:15;;;;;;;;;;;21.20;99.90;;;;;;5002297;28;19929;-63
2022/02/25 11:45:47;;;;;;;;;;;21.30;99.90;;;;;;5004467;28;19937;-62
2022/02/25 11:48:38;;;;;;;;;;;21.30;99.90;;;;;;4999497;28;19936;-63
2022/02/25 11:51:08;;;;;;;;;;;21.30;99.90;;;;;;5024979;28;19925;-61
2022/02/25 11:53:38;;;;;;;;;;;21.30;99.90;;;;;;5002432;28;19929;-58
2022/02/25 11:56:13;;;;;;;;;;;21.30;99.90;;;;;;5018091;28;20376;-64
2022/02/25 11:58:43;;;;;;;;;;;21.30;99.90;;;;;;5001427;28;20141;-64
2022/02/25 12:01:17;;;;;;;;;;;21.30;99.90;;;;;;5006638;28;19925;-63
2022/02/25 12:03:58;;;;;;;;;;;21.30;99.90;;;;;;5004033;28;20389;-64
2022/02/25 12:06:28;;;;;;;;;;;21.20;99.90;;;;;;5006628;28;19929;-62
2022/02/25 12:08:57;;;;;;;;;;;21.20;99.90;;;;;;5004481;28;19932;-61
2022/02/25 12:11:29;;;;;;;;;;;21.30;99.90;;;;;;5035063;28;19925;-60
2022/02/25 12:13:56;;;;;;;;;;;21.30;99.90;;;;;;5004333;28;19925;-59
2022/02/25 12:16:25;;;;;;;;;;;21.20;99.90;;;;;;5002329;28;19925;-60
2022/02/25 12:19:04;;;;;;;;;;;21.20;99.90;;;;;;5001954;28;19929;-61
2022/02/25 12:21:41;;;;;;;;;;;21.20;99.90;;;;;;4998419;28;19936;-63
2022/02/25 12:24:09;;;;;;;;;;;21.20;99.90;;;;;;5001067;28;19936;-61
2022/02/25 12:26:38;;;;;;;;;;;21.20;99.90;;;;;;5001842;28;19929;-62
2022/02/25 12:29:13;;;;;;;;;;;21.20;99.90;;;;;;5001857;28;19925;-64
2022/02/25 12:31:45;;;;;;;;;;;21.20;99.90;;;;;;4998182;28;19932;-62
2022/02/25 12:34:21;;;;;;;;;;;21.20;99.90;;;;;;4999121;28;19933;-60
2022/02/25 12:36:49;;;;;;;;;;;21.20;99.90;;;;;;4998882;28;19929;-62
2022/02/25 12:39:19;;;;;;;;;;;21.10;99.90;;;;;;4999036;28;19940;-60
2022/02/25 12:42:01;;;;;;;;;;;21.20;99.90;;;;;;5001223;28;20408;-64
2022/02/25 12:44:30;;;;;;;;;;;21.10;99.90;;;;;;4999472;28;19929;-62
2022/02/25 12:46:59;;;;;;;;;;;21.10;99.90;;;;;;5001590;28;19925;-62
2022/02/25 12:49:29;;;;;;;;;;;21.10;99.90;;;;;;5002039;28;20001;-63
2022/02/25 12:51:58;;;;;;;;;;;21.10;99.90;;;;;;4995599;28;20317;-60
2022/02/25 12:54:29;;;;;;;;;;;21.10;99.90;;;;;;5014472;28;19925;-63
2022/02/25 12:56:58;;;;;;;;;;;21.10;99.90;;;;;;5005802;28;19928;-61
2022/02/25 12:59:39;;;;;;;;;;;21.00;99.90;;;;;;5017477;28;19932;-60
2022/02/25 13:02:07;;;;;;;;;;;21.10;99.90;;;;;;5019715;28;19944;-61
2022/02/25 13:04:40;;;;;;;;;;;21.00;99.90;;;;;;5020134;28;19929;-61
2022/02/25 13:07:08;;;;;;;;;;;21.00;99.90;;;;;;5034333;28;20389;-60
2022/02/25 13:09:36;;;;;;;;;;;21.00;99.90;;;;;;5032938;28;19932;-62
2022/02/25 13:12:05;;;;;;;;;;;21.10;99.90;;;;;;5020359;28;19925;-62
2022/02/25 13:14:42;;;;;;;;;;;21.20;99.90;;;;;;5019623;28;20324;-61
2022/02/25 13:17:11;;;;;;;;;;;21.30;99.90;;;;;;5000960;28;20393;-62
2022/02/25 13:19:38;;;;;;;;;;;21.40;99.90;;;;;;5018890;28;19929;-64
2022/02/25 13:22:08;;;;;;;;;;;21.50;99.90;;;;;;5017614;28;19960;-59
2022/02/25 13:24:51;;;;;;;;;;;21.70;99.90;;;;;;5015155;28;19932;-59
2022/02/25 13:27:25;;;;;;;;;;;21.80;99.90;;;;;;5017501;28;19932;-59
2022/02/25 13:29:52;;;;;;;;;;;21.80;99.90;;;;;;5016552;28;20707;-62
2022/02/25 13:32:24;;;;;;;;;;;21.80;99.90;;;;;;5016240;28;19951;-63
2022/02/25 13:34:51;;;;;;;;;;;21.80;99.90;;;;;;5018308;28;20000;-62
2022/02/25 13:37:18;;;;;;;;;;;21.80;99.90;;;;;;5020450;28;19925;-66
2022/02/25 13:39:47;;;;;;;;;;;21.80;99.90;;;;;;5019691;28;20403;-66
2022/02/25 13:42:14;;;;;;;;;;;21.80;99.90;;;;;;5032223;28;19940;-65
2022/02/25 13:44:42;;;;;;;;;;;21.80;99.90;;;;;;5001206;28;19940;-67
2022/02/25 13:52:56;;;;;;;;;;;21.80;99.90;;;;;;5015393;28;19931;-65
2022/02/25 13:55:23;;;;;;;;;;;21.70;99.90;;;;;;5014208;28;19929;-61
2022/02/25 13:57:55;;;;;;;;;;;21.70;99.90;;;;;;5018636;28;19928;-60
2022/02/25 14:00:30;;;;;;;;;;;21.60;99.90;;;;;;4999296;28;20301;-58
2022/02/25 14:03:09;;;;;;;;;;;21.60;99.90;;;;;;5014596;28;19936;-58
2022/02/25 14:05:37;;;;;;;;;;;21.70;99.90;;;;;;5019366;28;19925;-62
2022/02/25 14:08:15;;;;;;;;;;;21.60;99.90;;;;;;5000664;28;19936;-60
2022/02/25 14:10:43;;;;;;;;;;;21.50;99.90;;;;;;5019092;28;19936;-60
2022/02/25 14:13:11;;;;;;;;;;;21.50;99.90;;;;;;4996983;28;19941;-62
2022/02/25 14:15:44;;;;;;;;;;;21.40;99.90;;;;;;5018212;28;19936;-62
2022/02/25 14:18:13;;;;;;;;;;;21.40;99.90;;;;;;5019248;28;19936;-60
2022/02/25 14:20:41;;;;;;;;;;;21.30;99.90;;;;;;5018582;28;19929;-59
2022/02/25 14:23:10;;;;;;;;;;;21.30;99.90;;;;;;5016596;28;20732;-58
2022/02/25 14:25:38;;;;;;;;;;;21.30;99.90;;;;;;5017080;28;20380;-58
2022/02/25 14:28:10;;;;;;;;;;;21.30;99.90;;;;;;5001351;28;19925;-61
2022/02/25 14:30:44;;;;;;;;;;;21.20;99.90;;;;;;5012698;28;20221;-61
2022/02/25 14:33:13;;;;;;;;;;;21.20;99.90;;;;;;5015803;28;19936;-66
2022/02/25 14:35:51;;;;;;;;;;;21.30;99.90;;;;;;5016870;28;19929;-64
2022/02/25 14:38:22;;;;;;;;;;;21.30;99.90;;;;;;5014638;28;19932;-65
2022/02/25 14:40:49;;;;;;;;;;;21.30;99.90;;;;;;5018119;28;19921;-63